Time;durP1;ratioP1;P1;durP2;ratioP2;P2;SDS_P1;SDS_P2;PMS_P1;PMS_P2;Temp;Humidity;BMP_temperature;BMP_pressure;BME280_temperature;BME280_humidity;BME280_pressure;Samples;Min_cycle;Max_cycle;Signal;HPM_P1;HPM_P2
2021/06/11 00:02:14;;;;;;;7.23;5.30;;;;;;;;;;5041755;28;20028;-67
2021/06/11 00:04:39;;;;;;;8.77;5.65;;;;;;;;;;5046032;28;20642;-67
2021/06/11 00:07:04;;;;;;;8.30;5.47;;;;;;;;;;5046364;28;20028;-67
2021/06/11 00:09:29;;;;;;;14.07;6.07;;;;;;;;;;5083741;23;20331;-65
2021/06/11 00:11:55;;;;;;;12.02;5.80;;;;;;;;;;5064778;28;20286;-65
2021/06/11 00:14:20;;;;;;;10.20;5.70;;;;;;;;;;5069279;28;20022;-65
2021/06/11 00:16:46;;;;;;;7.90;5.13;;;;;;;;;;5069144;28;20095;-65
2021/06/11 00:19:11;;;;;;;6.53;5.13;;;;;;;;;;5068720;28;20576;-66
2021/06/11 00:21:36;;;;;;;11.77;5.43;;;;;;;;;;5068838;28;20083;-64
2021/06/11 00:24:01;;;;;;;8.23;5.35;;;;;;;;;;5069053;28;20019;-65
2021/06/11 00:26:27;;;;;;;7.53;5.72;;;;;;;;;;5064663;28;20056;-65
2021/06/11 00:28:52;;;;;;;8.17;5.50;;;;;;;;;;5064237;28;20064;-65
2021/06/11 00:31:17;;;;;;;8.57;5.28;;;;;;;;;;5069101;28;20381;-65
2021/06/11 00:33:42;;;;;;;9.20;5.90;;;;;;;;;;5068514;28;20103;-66
2021/06/11 00:36:07;;;;;;;9.87;5.50;;;;;;;;;;5059512;28;20267;-65
2021/06/11 00:38:34;;;;;;;11.43;5.47;;;;;;;;;;5065265;28;20262;-64
2021/06/11 00:40:59;;;;;;;10.85;6.63;;;;;;;;;;5068544;28;20267;-65
2021/06/11 00:43:24;;;;;;;6.67;5.30;;;;;;;;;;5072190;28;20620;-66
2021/06/11 00:45:49;;;;;;;13.27;6.07;;;;;;;;;;5072842;28;20277;-65
2021/06/11 00:48:15;;;;;;;13.35;5.68;;;;;;;;;;5072162;28;20270;-65
2021/06/11 00:50:40;;;;;;;9.25;5.65;;;;;;;;;;5053574;28;20051;-65
2021/06/11 00:53:10;;;;;;;9.98;5.88;;;;;;;;;;5070820;28;20060;-68
2021/06/11 00:55:36;;;;;;;11.63;5.90;;;;;;;;;;5072618;28;20044;-66
2021/06/11 00:58:02;;;;;;;7.93;6.00;;;;;;;;;;5069168;28;20028;-64
2021/06/11 01:00:27;;;;;;;7.40;6.00;;;;;;;;;;5065068;28;20150;-64
2021/06/11 01:02:52;;;;;;;8.57;5.83;;;;;;;;;;5069735;28;20028;-68
2021/06/11 01:05:17;;;;;;;12.38;6.57;;;;;;;;;;5066352;28;20271;-63
2021/06/11 01:07:45;;;;;;;10.93;5.93;;;;;;;;;;5071587;28;20024;-66
2021/06/11 01:10:11;;;;;;;10.70;5.47;;;;;;;;;;5072327;28;20028;-66
2021/06/11 01:12:37;;;;;;;7.97;6.75;;;;;;;;;;5071664;28;20442;-65
2021/06/11 01:15:08;;;;;;;13.38;5.65;;;;;;;;;;5069272;28;20464;-64
2021/06/11 01:17:36;;;;;;;14.80;6.85;;;;;;;;;;5071043;28;20031;-66
2021/06/11 01:20:06;;;;;;;9.98;6.05;;;;;;;;;;5059485;28;20412;-66
2021/06/11 01:22:47;;;;;;;9.15;7.13;;;;;;;;;;5071639;28;20039;-66
2021/06/11 01:25:14;;;;;;;16.15;6.32;;;;;;;;;;5071937;28;20101;-66
2021/06/11 01:27:41;;;;;;;15.85;6.80;;;;;;;;;;5071624;28;20043;-65
2021/06/11 01:30:07;;;;;;;11.02;6.38;;;;;;;;;;5072174;28;20146;-66
2021/06/11 01:32:33;;;;;;;11.82;6.60;;;;;;;;;;5068628;28;20099;-66
2021/06/11 01:35:00;;;;;;;14.55;6.63;;;;;;;;;;5062476;28;20131;-66
2021/06/11 01:37:32;;;;;;;12.02;7.05;;;;;;;;;;5071527;28;20374;-66
2021/06/11 01:39:57;;;;;;;12.60;6.80;;;;;;;;;;5071436;28;20025;-66
2021/06/11 01:42:22;;;;;;;12.77;7.18;;;;;;;;;;5071469;28;20032;-65
2021/06/11 01:44:50;;;;;;;10.57;6.55;;;;;;;;;;5071368;28;20315;-66
2021/06/11 01:47:15;;;;;;;10.15;6.78;;;;;;;;;;5070900;28;20518;-64
2021/06/11 01:49:44;;;;;;;13.77;6.63;;;;;;;;;;5064312;28;20037;-67
2021/06/11 01:52:10;;;;;;;11.80;6.38;;;;;;;;;;5069183;28;20355;-66
2021/06/11 01:54:37;;;;;;;8.55;6.68;;;;;;;;;;5070204;28;20020;-66
2021/06/11 01:57:02;;;;;;;13.55;7.15;;;;;;;;;;5071232;28;20366;-66
2021/06/11 01:59:28;;;;;;;14.15;6.20;;;;;;;;;;5071054;28;20032;-65
2021/06/11 02:01:53;;;;;;;10.88;6.03;;;;;;;;;;5071262;28;20504;-66
2021/06/11 02:04:19;;;;;;;7.95;6.03;;;;;;;;;;5071009;28;20017;-66
2021/06/11 02:06:44;;;;;;;7.82;6.28;;;;;;;;;;5069951;28;20491;-66
2021/06/11 02:09:11;;;;;;;11.15;6.50;;;;;;;;;;5070880;28;20029;-66
2021/06/11 02:11:36;;;;;;;8.10;6.25;;;;;;;;;;5070408;28;20024;-66
2021/06/11 02:14:03;;;;;;;7.93;5.75;;;;;;;;;;5069115;28;20393;-65
2021/06/11 02:16:29;;;;;;;10.90;6.60;;;;;;;;;;5070881;28;20080;-64
2021/06/11 02:18:54;;;;;;;17.45;6.57;;;;;;;;;;5070575;28;20467;-65
2021/06/11 02:21:20;;;;;;;13.95;6.28;;;;;;;;;;5070585;28;20638;-65
2021/06/11 02:23:45;;;;;;;12.75;6.40;;;;;;;;;;5070113;28;20100;-66
2021/06/11 02:26:12;;;;;;;11.97;6.63;;;;;;;;;;5069943;28;20016;-64
2021/06/11 02:28:37;;;;;;;12.50;6.90;;;;;;;;;;5070082;28;20404;-66
2021/06/11 02:31:03;;;;;;;10.77;6.30;;;;;;;;;;5070437;28;20025;-65
2021/06/11 02:33:28;;;;;;;19.27;7.15;;;;;;;;;;5070982;28;20028;-66
2021/06/11 02:35:54;;;;;;;12.25;6.82;;;;;;;;;;5069638;28;20474;-66
2021/06/11 02:38:19;;;;;;;13.25;5.97;;;;;;;;;;5070511;28;20020;-64
2021/06/11 02:40:44;;;;;;;7.28;6.32;;;;;;;;;;5070034;28;20428;-66
2021/06/11 02:43:12;;;;;;;8.17;6.63;;;;;;;;;;5069913;28;20032;-65
2021/06/11 02:45:41;;;;;;;11.93;6.70;;;;;;;;;;5069326;28;20621;-65
2021/06/11 02:48:11;;;;;;;14.60;7.32;;;;;;;;;;5070146;28;20506;-65
2021/06/11 02:50:37;;;;;;;10.57;7.30;;;;;;;;;;5068951;28;20016;-66
2021/06/11 02:53:04;;;;;;;14.88;7.95;;;;;;;;;;5070195;28;20029;-66
2021/06/11 02:55:32;;;;;;;8.95;7.55;;;;;;;;;;5069837;28;20462;-65
2021/06/11 02:58:12;;;;;;;9.93;7.22;;;;;;;;;;5067573;28;20024;-66
2021/06/11 03:00:37;;;;;;;;;;;;;;;;;;5064652;28;20055;-66
2021/06/11 03:03:15;;;;;;;11.60;6.70;;;;;;;;;;5070110;28;19944;-66
2021/06/11 03:05:42;;;;;;;13.68;7.57;;;;;;;;;;5069261;28;20327;-66
2021/06/11 03:08:10;;;;;;;11.55;7.35;;;;;;;;;;5069220;28;20028;-65
2021/06/11 03:10:35;;;;;;;9.43;7.20;;;;;;;;;;5051593;28;20432;-66
2021/06/11 03:13:02;;;;;;;11.82;7.25;;;;;;;;;;5067720;28;20027;-66
2021/06/11 03:15:29;;;;;;;11.48;7.45;;;;;;;;;;5069977;28;20409;-66
2021/06/11 03:17:55;;;;;;;10.15;7.00;;;;;;;;;;5069491;28;20021;-65
2021/06/11 03:20:24;;;;;;;9.32;6.85;;;;;;;;;;5070067;28;20031;-65
2021/06/11 03:22:52;;;;;;;9.65;7.45;;;;;;;;;;5069587;28;20021;-66
2021/06/11 03:25:22;;;;;;;10.77;7.22;;;;;;;;;;5067015;28;20020;-65
2021/06/11 03:27:50;;;;;;;12.02;8.02;;;;;;;;;;5062123;28;20028;-66
2021/06/11 03:30:16;;;;;;;14.48;7.35;;;;;;;;;;5068675;28;20291;-65
2021/06/11 03:32:45;;;;;;;12.55;7.35;;;;;;;;;;5069625;28;20436;-66
2021/06/11 03:35:14;;;;;;;15.18;8.23;;;;;;;;;;5069770;28;20432;-65
2021/06/11 03:37:39;;;;;;;10.32;7.22;;;;;;;;;;5068757;28;20036;-66
2021/06/11 03:40:07;;;;;;;11.88;7.88;;;;;;;;;;5051341;28;20074;-66
2021/06/11 03:42:32;;;;;;;14.90;7.72;;;;;;;;;;5069545;28;20433;-66
2021/06/11 03:44:58;;;;;;;10.60;7.88;;;;;;;;;;5069348;28;20029;-66
2021/06/11 03:47:25;;;;;;;19.20;7.80;;;;;;;;;;5067116;28;20029;-64
2021/06/11 03:49:53;;;;;;;11.15;7.70;;;;;;;;;;5066066;28;20027;-66
2021/06/11 03:52:24;;;;;;;12.88;7.15;;;;;;;;;;5068950;28;20020;-66
2021/06/11 03:54:51;;;;;;;11.30;7.82;;;;;;;;;;5069740;28;20029;-65
2021/06/11 03:57:17;;;;;;;10.70;7.82;;;;;;;;;;5069085;28;20019;-65
2021/06/11 03:59:43;;;;;;;13.50;7.65;;;;;;;;;;5069890;28;20398;-65
2021/06/11 04:02:08;;;;;;;14.68;7.28;;;;;;;;;;5069551;28;20150;-66
2021/06/11 04:04:33;;;;;;;13.90;7.17;;;;;;;;;;5068313;28;20111;-65
2021/06/11 04:07:03;;;;;;;15.05;7.40;;;;;;;;;;5067114;28;20262;-65
2021/06/11 04:09:30;;;;;;;14.10;7.88;;;;;;;;;;5069398;28;20425;-66
2021/06/11 04:12:02;;;;;;;12.27;7.32;;;;;;;;;;5069077;28;20040;-65
2021/06/11 04:14:33;;;;;;;13.85;7.68;;;;;;;;;;5069039;28;20013;-65
2021/06/11 04:17:00;;;;;;;15.32;8.13;;;;;;;;;;5070391;28;20543;-65
2021/06/11 04:19:33;;;;;;;15.02;7.68;;;;;;;;;;5072964;28;20304;-68
2021/06/11 04:21:58;;;;;;;18.40;8.00;;;;;;;;;;5069656;28;20024;-66
2021/06/11 04:24:29;;;;;;;13.45;7.72;;;;;;;;;;5072566;28;20082;-65
2021/06/11 04:26:55;;;;;;;14.98;8.07;;;;;;;;;;5072722;28;20177;-66
2021/06/11 04:29:21;;;;;;;9.55;7.25;;;;;;;;;;5072085;28;20046;-66
2021/06/11 04:31:46;;;;;;;10.57;7.55;;;;;;;;;;5072603;28;20020;-65
2021/06/11 04:34:16;;;;;;;8.77;7.43;;;;;;;;;;5072521;28;20020;-66
2021/06/11 04:36:42;;;;;;;11.55;7.53;;;;;;;;;;5072450;28;20020;-66
2021/06/11 04:39:08;;;;;;;12.30;7.70;;;;;;;;;;5070899;28;20024;-66
2021/06/11 04:41:33;;;;;;;15.80;7.82;;;;;;;;;;5054922;28;20120;-65
2021/06/11 04:43:59;;;;;;;13.55;9.27;;;;;;;;;;5072194;28;20039;-66
2021/06/11 04:46:24;;;;;;;13.13;7.68;;;;;;;;;;5072785;28;20383;-66
2021/06/11 04:48:50;;;;;;;11.57;8.20;;;;;;;;;;5072303;28;20078;-66
2021/06/11 04:51:15;;;;;;;17.50;8.10;;;;;;;;;;5073095;28;20446;-67
2021/06/11 04:53:40;;;;;;;13.52;7.88;;;;;;;;;;5072278;28;20333;-66
2021/06/11 04:56:08;;;;;;;12.80;8.55;;;;;;;;;;5070266;28;20051;-67
2021/06/11 04:58:34;;;;;;;14.95;8.25;;;;;;;;;;5072318;28;20016;-66
2021/06/11 05:00:59;;;;;;;15.60;8.32;;;;;;;;;;5072356;28;20544;-66
2021/06/11 05:03:24;;;;;;;12.93;8.10;;;;;;;;;;5071800;28;20123;-66
2021/06/11 05:05:49;;;;;;;23.80;9.50;;;;;;;;;;5064977;28;20278;-66
2021/06/11 05:08:14;;;;;;;14.57;9.07;;;;;;;;;;5062309;28;20348;-66
2021/06/11 05:10:40;;;;;;;18.83;9.40;;;;;;;;;;5070116;28;20266;-66
2021/06/11 05:13:05;;;;;;;18.25;8.48;;;;;;;;;;5068790;28;20290;-66
2021/06/11 05:15:30;;;;;;;16.53;10.10;;;;;;;;;;5069968;28;20027;-66
2021/06/11 05:18:01;;;;;;;14.90;8.82;;;;;;;;;;5069610;28;20405;-65
2021/06/11 05:20:26;;;;;;;13.80;8.85;;;;;;;;;;5070138;28;20023;-66
2021/06/11 05:22:52;;;;;;;21.87;10.20;;;;;;;;;;5064904;28;20021;-66
2021/06/11 05:25:17;;;;;;;18.73;9.93;;;;;;;;;;5063230;28;20768;-66
2021/06/11 05:27:42;;;;;;;17.08;9.43;;;;;;;;;;5069753;28;20258;-66
2021/06/11 05:30:07;;;;;;;15.17;9.87;;;;;;;;;;5068470;28;20040;-66
2021/06/11 05:32:32;;;;;;;17.80;11.25;;;;;;;;;;5068920;28;20087;-66
2021/06/11 05:34:58;;;;;;;18.10;10.43;;;;;;;;;;5069681;28;20061;-66
2021/06/11 05:37:23;;;;;;;17.50;10.52;;;;;;;;;;5069073;28;20267;-66
2021/06/11 05:39:48;;;;;;;65.40;15.13;;;;;;;;;;5070050;28;20025;-66
2021/06/11 05:42:13;;;;;;;26.92;11.00;;;;;;;;;;5061253;28;20369;-66
2021/06/11 05:44:38;;;;;;;21.30;12.20;;;;;;;;;;5064902;28;20477;-66
2021/06/11 05:47:04;;;;;;;28.87;13.23;;;;;;;;;;5068439;28;20490;-65
2021/06/11 05:49:29;;;;;;;24.20;14.02;;;;;;;;;;5069375;28;20277;-65
2021/06/11 05:51:54;;;;;;;23.63;14.27;;;;;;;;;;5069073;28;20481;-65
2021/06/11 05:54:19;;;;;;;27.07;13.57;;;;;;;;;;5059414;28;20362;-65
2021/06/11 05:56:44;;;;;;;27.77;16.53;;;;;;;;;;5054515;28;20272;-65
2021/06/11 05:59:10;;;;;;;39.88;21.85;;;;;;;;;;5052845;28;20270;-65
2021/06/11 06:01:35;;;;;;;39.78;23.00;;;;;;;;;;5064804;28;20012;-65
2021/06/11 06:04:00;;;;;;;39.17;21.40;;;;;;;;;;5070884;28;20017;-65
2021/06/11 06:06:26;;;;;;;37.67;20.37;;;;;;;;;;5070872;28;20309;-65
2021/06/11 06:08:51;;;;;;;40.65;21.70;;;;;;;;;;5071590;28;20029;-65
2021/06/11 06:11:16;;;;;;;46.60;21.77;;;;;;;;;;5069406;28;20371;-65
2021/06/11 06:13:41;;;;;;;31.25;19.40;;;;;;;;;;5070656;28;20279;-65
2021/06/11 06:16:07;;;;;;;28.13;15.65;;;;;;;;;;5063472;28;20027;-65
2021/06/11 06:18:32;;;;;;;23.70;14.77;;;;;;;;;;5060415;28;20409;-65
2021/06/11 06:20:57;;;;;;;26.40;13.50;;;;;;;;;;5065494;28;20025;-65
2021/06/11 06:23:23;;;;;;;24.38;14.48;;;;;;;;;;5060137;28;20263;-65
2021/06/11 06:25:48;;;;;;;35.15;14.02;;;;;;;;;;5070996;28;20039;-65
2021/06/11 06:28:13;;;;;;;26.20;12.50;;;;;;;;;;5066010;28;20043;-65
2021/06/11 06:30:39;;;;;;;30.75;13.90;;;;;;;;;;5062544;28;20271;-65
2021/06/11 06:33:04;;;;;;;26.10;13.25;;;;;;;;;;5068908;28;20107;-65
2021/06/11 06:35:29;;;;;;;25.73;13.45;;;;;;;;;;5070414;28;20095;-65
2021/06/11 06:37:54;;;;;;;29.77;14.88;;;;;;;;;;5069737;28;20031;-65
2021/06/11 06:40:20;;;;;;;26.95;14.40;;;;;;;;;;5069131;28;20474;-67
2021/06/11 06:42:45;;;;;;;32.08;14.40;;;;;;;;;;5070097;28;20020;-67
2021/06/11 06:45:14;;;;;;;31.25;15.25;;;;;;;;;;5069326;28;20067;-66
2021/06/11 06:47:44;;;;;;;33.67;16.50;;;;;;;;;;5061877;28;20052;-66
2021/06/11 06:50:10;;;;;;;29.83;14.40;;;;;;;;;;5070216;28;20028;-64
2021/06/11 06:52:35;;;;;;;27.95;16.10;;;;;;;;;;5069577;28;20073;-66
2021/06/11 06:55:00;;;;;;;29.10;15.60;;;;;;;;;;5069467;28;20024;-64
2021/06/11 06:57:25;;;;;;;31.45;15.30;;;;;;;;;;5070085;28;20786;-66
2021/06/11 06:59:50;;;;;;;34.23;17.40;;;;;;;;;;5069427;28;20774;-64
2021/06/11 07:02:15;;;;;;;34.53;18.73;;;;;;;;;;5070069;28;20278;-65
2021/06/11 07:04:41;;;;;;;35.10;16.97;;;;;;;;;;5070047;28;20266;-64
2021/06/11 07:07:08;;;;;;;36.53;18.23;;;;;;;;;;5069281;28;20263;-64
2021/06/11 07:09:33;;;;;;;36.05;17.88;;;;;;;;;;5069998;28;20039;-65
2021/06/11 07:11:58;;;;;;;43.13;20.60;;;;;;;;;;5070107;28;20424;-65
2021/06/11 07:14:26;;;;;;;38.00;20.03;;;;;;;;;;5057027;28;20035;-65
2021/06/11 07:16:52;;;;;;;35.35;18.20;;;;;;;;;;5069247;28;20099;-65
2021/06/11 07:19:17;;;;;;;29.97;16.77;;;;;;;;;;5069392;28;20048;-65
2021/06/11 07:21:42;;;;;;;39.17;18.77;;;;;;;;;;5069012;28;20483;-65
2021/06/11 07:24:08;;;;;;;39.88;17.83;;;;;;;;;;5069406;28;20382;-65
2021/06/11 07:26:33;;;;;;;32.17;17.50;;;;;;;;;;5062280;28;20024;-65
2021/06/11 07:28:58;;;;;;;29.08;16.13;;;;;;;;;;5060140;28;20456;-65
2021/06/11 07:31:25;;;;;;;29.90;16.40;;;;;;;;;;5061190;28;20146;-65
2021/06/11 07:33:50;;;;;;;32.25;16.38;;;;;;;;;;5062403;28;20103;-65
2021/06/11 07:36:15;;;;;;;26.90;15.27;;;;;;;;;;5061028;28;20104;-67
2021/06/11 07:38:40;;;;;;;48.33;18.25;;;;;;;;;;5058881;28;20282;-65
2021/06/11 07:41:06;;;;;;;31.93;17.77;;;;;;;;;;5066039;28;20043;-65
2021/06/11 07:43:31;;;;;;;34.25;16.95;;;;;;;;;;5069375;28;20298;-65
2021/06/11 07:45:56;;;;;;;30.13;15.00;;;;;;;;;;5066042;28;20035;-64
2021/06/11 07:48:22;;;;;;;24.53;15.07;;;;;;;;;;5069441;28;20262;-65
2021/06/11 07:50:47;;;;;;;28.73;14.88;;;;;;;;;;5070443;28;20262;-65
2021/06/11 07:53:12;;;;;;;41.27;17.30;;;;;;;;;;5072827;28;20029;-65
2021/06/11 07:55:37;;;;;;;24.00;13.83;;;;;;;;;;5070685;28;20274;-65
2021/06/11 07:58:03;;;;;;;25.42;13.70;;;;;;;;;;5072958;28;20277;-65
2021/06/11 08:00:29;;;;;;;29.45;16.13;;;;;;;;;;5071445;28;20024;-66
2021/06/11 08:02:55;;;;;;;30.30;17.20;;;;;;;;;;5068513;28;20040;-66
2021/06/11 08:05:20;;;;;;;26.85;15.25;;;;;;;;;;5073246;28;20407;-66
2021/06/11 08:07:45;;;;;;;28.50;15.07;;;;;;;;;;5071887;28;20160;-66
2021/06/11 08:10:11;;;;;;;26.93;14.90;;;;;;;;;;5065064;28;20020;-66
2021/06/11 08:12:36;;;;;;;25.25;15.57;;;;;;;;;;5072807;28;20642;-66
2021/06/11 08:15:01;;;;;;;24.63;15.77;;;;;;;;;;5072999;28;20077;-66
2021/06/11 08:17:26;;;;;;;23.52;15.27;;;;;;;;;;5073029;28;20029;-66
2021/06/11 08:19:51;;;;;;;32.33;16.13;;;;;;;;;;5072888;28;20023;-66
2021/06/11 08:22:17;;;;;;;30.50;16.42;;;;;;;;;;5073555;28;20029;-66
2021/06/11 08:24:42;;;;;;;21.98;14.90;;;;;;;;;;5067664;28;20058;-65
2021/06/11 08:27:08;;;;;;;25.67;15.67;;;;;;;;;;5064761;28;20024;-65
2021/06/11 08:29:33;;;;;;;25.95;16.55;;;;;;;;;;5040154;28;20052;-66
2021/06/11 08:31:59;;;;;;;30.63;17.33;;;;;;;;;;5073053;28;20029;-66
2021/06/11 08:34:25;;;;;;;35.05;18.10;;;;;;;;;;5065796;28;20023;-66
2021/06/11 08:36:51;;;;;;;33.65;15.40;;;;;;;;;;5070733;28;20423;-66
2021/06/11 08:39:16;;;;;;;28.08;15.23;;;;;;;;;;5072037;28;20048;-66
2021/06/11 08:41:42;;;;;;;29.55;16.40;;;;;;;;;;5072978;28;20025;-66
2021/06/11 08:44:07;;;;;;;24.08;14.00;;;;;;;;;;5072616;28;20021;-66
2021/06/11 08:46:33;;;;;;;21.70;14.37;;;;;;;;;;5072531;28;20025;-66
2021/06/11 08:49:01;;;;;;;21.92;13.32;;;;;;;;;;5072775;28;20024;-66
2021/06/11 08:51:26;;;;;;;21.35;13.00;;;;;;;;;;5063991;28;20112;-66
2021/06/11 08:53:51;;;;;;;37.60;17.02;;;;;;;;;;5053006;28;20091;-66
2021/06/11 08:56:16;;;;;;;28.17;15.10;;;;;;;;;;5064749;28;20029;-66
2021/06/11 08:58:42;;;;;;;26.53;16.43;;;;;;;;;;5072361;28;20390;-66
2021/06/11 09:01:07;;;;;;;26.77;15.68;;;;;;;;;;5072257;28;20749;-66
2021/06/11 09:03:41;;;;;;;47.42;21.02;;;;;;;;;;5071284;28;20028;-67
2021/06/11 09:06:12;;;;;;;25.63;13.20;;;;;;;;;;5072262;28;20494;-66
2021/06/11 09:08:37;;;;;;;27.70;17.48;;;;;;;;;;5069614;28;20086;-66
2021/06/11 09:11:09;;;;;;;27.42;17.02;;;;;;;;;;5071218;28;20094;-66
2021/06/11 09:13:34;;;;;;;27.98;18.13;;;;;;;;;;5072369;28;20375;-66
2021/06/11 09:16:25;;;;;;;31.20;18.42;;;;;;;;;;5071568;28;20016;-66
2021/06/11 09:18:55;;;;;;;30.45;19.60;;;;;;;;;;5067087;28;20046;-66
2021/06/11 09:21:26;;;;;;;32.78;19.23;;;;;;;;;;5072292;28;20031;-66
2021/06/11 09:26:57;;;;;;;25.75;16.30;;;;;;;;;;5071462;28;20067;-66
2021/06/11 09:29:26;;;;;;;29.15;18.23;;;;;;;;;;5071746;28;20100;-66
2021/06/11 09:31:52;;;;;;;29.70;17.73;;;;;;;;;;5071666;28;20047;-66
2021/06/11 09:34:22;;;;;;;28.50;17.13;;;;;;;;;;5072090;28;20022;-67
2021/06/11 09:37:01;;;;;;;30.95;18.95;;;;;;;;;;5067855;28;20012;-66
2021/06/11 09:39:46;;;;;;;22.48;14.65;;;;;;;;;;5065548;28;20414;-66
2021/06/11 09:42:13;;;;;;;23.88;15.75;;;;;;;;;;5067262;28;20071;-67
2021/06/11 09:44:38;;;;;;;30.95;15.85;;;;;;;;;;5071196;28;20035;-67
2021/06/11 09:47:03;;;;;;;35.90;19.80;;;;;;;;;;5071607;28;20100;-66
2021/06/11 09:49:39;;;;;;;36.08;17.05;;;;;;;;;;5071320;28;20047;-67
2021/06/11 09:52:09;;;;;;;32.83;19.25;;;;;;;;;;5057840;28;20528;-67
2021/06/11 09:54:34;;;;;;;;;;;;;;;;;;5071964;28;20044;-67
2021/06/11 09:57:20;;;;;;;28.02;16.77;;;;;;;;;;5069900;28;19938;-67
2021/06/11 09:59:46;;;;;;;24.20;16.52;;;;;;;;;;5070640;28;20385;-67
2021/06/11 10:02:17;;;;;;;21.17;15.88;;;;;;;;;;5070928;28;20028;-67
2021/06/11 10:04:44;;;;;;;23.58;16.42;;;;;;;;;;5071390;28;20027;-66
2021/06/11 10:07:10;;;;;;;24.98;15.18;;;;;;;;;;5070595;28;20024;-67
2021/06/11 10:09:35;;;;;;;26.50;16.35;;;;;;;;;;5054674;28;20028;-67
2021/06/11 10:12:00;;;;;;;30.40;15.90;;;;;;;;;;5061460;28;20031;-66
2021/06/11 10:14:25;;;;;;;27.67;16.03;;;;;;;;;;5059100;28;20021;-66
2021/06/11 10:16:50;;;;;;;27.67;13.68;;;;;;;;;;5052338;28;20370;-66
2021/06/11 10:19:16;;;;;;;26.40;16.07;;;;;;;;;;5070911;28;20020;-67
2021/06/11 10:21:42;;;;;;;19.27;12.80;;;;;;;;;;5070575;28;20312;-67
2021/06/11 10:24:08;;;;;;;28.77;13.20;;;;;;;;;;5053127;28;20274;-67
2021/06/11 10:26:33;;;;;;;24.13;14.73;;;;;;;;;;5064958;28;20035;-67
2021/06/11 10:28:58;;;;;;;17.63;12.83;;;;;;;;;;5070873;28;20116;-66
2021/06/11 10:31:24;;;;;;;14.27;10.43;;;;;;;;;;5070714;28;20463;-67
2021/06/11 10:33:50;;;;;;;17.98;10.10;;;;;;;;;;5070903;28;20078;-67
2021/06/11 10:36:25;;;;;;;15.48;10.88;;;;;;;;;;5070537;28;20475;-67
2021/06/11 10:38:51;;;;;;;21.48;11.77;;;;;;;;;;5069646;28;20657;-67
2021/06/11 10:41:16;;;;;;;16.08;11.63;;;;;;;;;;5068320;28;20103;-67
2021/06/11 10:43:43;;;;;;;19.08;10.48;;;;;;;;;;5068826;28;20025;-68
2021/06/11 10:46:24;;;;;;;14.32;11.50;;;;;;;;;;5070708;28;20024;-68
2021/06/11 10:48:55;;;;;;;18.33;12.05;;;;;;;;;;5065390;28;20063;-65
2021/06/11 10:51:37;;;;;;;18.65;12.38;;;;;;;;;;5069558;28;20066;-66
2021/06/11 10:54:21;;;;;;;19.42;11.30;;;;;;;;;;5070227;28;20078;-66
2021/06/11 10:56:58;;;;;;;13.25;9.68;;;;;;;;;;5065932;28;20058;-67
2021/06/11 10:59:39;;;;;;;16.92;11.50;;;;;;;;;;5069902;28;20008;-65
2021/06/11 11:02:05;;;;;;;30.30;11.85;;;;;;;;;;5070035;28;20112;-65
2021/06/11 11:04:35;;;;;;;18.63;11.25;;;;;;;;;;5069273;28;20108;-68
2021/06/11 11:07:19;;;;;;;13.90;9.23;;;;;;;;;;5069893;28;20233;-68
2021/06/11 11:09:58;;;;;;;14.60;8.10;;;;;;;;;;5056262;28;20025;-66
2021/06/11 11:12:32;;;;;;;18.88;12.52;;;;;;;;;;5069893;28;20074;-68
2021/06/11 11:15:00;;;;;;;23.48;10.63;;;;;;;;;;5069687;28;20031;-66
2021/06/11 11:17:26;;;;;;;8.27;6.78;;;;;;;;;;5052737;28;20017;-68
2021/06/11 11:19:53;;;;;;;10.15;6.57;;;;;;;;;;5070000;28;20078;-67
2021/06/11 11:22:38;;;;;;;7.35;4.68;;;;;;;;;;5069961;28;20094;-66
2021/06/11 11:25:06;;;;;;;11.50;6.45;;;;;;;;;;5069751;28;20103;-66
2021/06/11 11:27:32;;;;;;;13.27;8.32;;;;;;;;;;5069759;28;20093;-66
2021/06/11 11:29:58;;;;;;;10.77;8.00;;;;;;;;;;5064876;28;20074;-66
2021/06/11 11:32:24;;;;;;;13.75;8.25;;;;;;;;;;5069782;28;20303;-66
2021/06/11 11:34:50;;;;;;;11.25;8.10;;;;;;;;;;5069447;28;20035;-66
2021/06/11 11:37:15;;;;;;;17.60;7.87;;;;;;;;;;5069331;28;20268;-65
2021/06/11 11:39:40;;;;;;;13.50;7.30;;;;;;;;;;5069114;28;20266;-68
2021/06/11 11:42:06;;;;;;;11.13;6.72;;;;;;;;;;5069608;28;20031;-66
2021/06/11 11:44:33;;;;;;;9.57;7.47;;;;;;;;;;5069292;28;20019;-68
2021/06/11 11:46:58;;;;;;;10.45;6.65;;;;;;;;;;5066990;28;20600;-65
2021/06/11 11:49:23;;;;;;;10.40;5.50;;;;;;;;;;5069535;28;20035;-65
2021/06/11 11:51:50;;;;;;;13.83;6.60;;;;;;;;;;5068747;28;20305;-65
2021/06/11 11:54:15;;;;;;;9.50;7.10;;;;;;;;;;5069892;28;20333;-67
2021/06/11 11:56:40;;;;;;;12.48;7.30;;;;;;;;;;5069467;28;20048;-67
2021/06/11 11:59:07;;;;;;;10.70;7.22;;;;;;;;;;5069029;28;20023;-67
2021/06/11 12:01:36;;;;;;;10.15;6.80;;;;;;;;;;5064372;28;20025;-67
2021/06/11 12:04:01;;;;;;;14.30;6.27;;;;;;;;;;5058917;28;20055;-66
2021/06/11 12:06:26;;;;;;;11.83;7.33;;;;;;;;;;5068840;28;20052;-66
2021/06/11 12:08:51;;;;;;;9.97;6.67;;;;;;;;;;5077335;23;20017;-83
2021/06/11 12:11:16;;;;;;;10.40;6.63;;;;;;;;;;5054462;28;20067;-84
2021/06/11 12:13:42;;;;;;;14.33;5.90;;;;;;;;;;5061558;28;20477;-83
2021/06/11 12:16:07;;;;;;;14.45;5.38;;;;;;;;;;5066014;28;20016;-84
2021/06/11 12:18:32;;;;;;;9.07;5.30;;;;;;;;;;5067021;28;20418;-84
2021/06/11 12:20:57;;;;;;;7.68;4.65;;;;;;;;;;5067552;28;20270;-84
2021/06/11 12:23:22;;;;;;;8.27;5.90;;;;;;;;;;5049997;28;20685;-84
2021/06/11 12:25:48;;;;;;;14.10;5.32;;;;;;;;;;5049083;28;20071;-85
2021/06/11 12:28:13;;;;;;;20.08;6.15;;;;;;;;;;5048377;28;20478;-84
2021/06/11 12:30:38;;;;;;;13.30;5.50;;;;;;;;;;5051126;28;20157;-84
2021/06/11 12:33:04;;;;;;;8.52;5.38;;;;;;;;;;5049361;28;20032;-84
2021/06/11 12:35:29;;;;;;;12.48;5.53;;;;;;;;;;5067478;28;20077;-83
2021/06/11 12:37:55;;;;;;;9.17;4.47;;;;;;;;;;5068809;28;20028;-84
2021/06/11 12:40:20;;;;;;;11.30;4.15;;;;;;;;;;5070054;28;20262;-83
2021/06/11 12:42:49;;;;;;;8.40;4.22;;;;;;;;;;5052008;28;20020;-84
2021/06/11 12:45:15;;;;;;;9.65;4.70;;;;;;;;;;5052428;28;20039;-83
2021/06/11 12:47:40;;;;;;;9.13;5.55;;;;;;;;;;5052531;28;20036;-84
2021/06/11 12:50:07;;;;;;;7.55;4.68;;;;;;;;;;5052826;28;22178;-84
2021/06/11 12:52:32;;;;;;;13.55;5.82;;;;;;;;;;5053750;28;20024;-84
2021/06/11 12:54:57;;;;;;;12.67;6.07;;;;;;;;;;5052529;28;20028;-83
2021/06/11 12:57:22;;;;;;;12.50;5.30;;;;;;;;;;5069865;28;20251;-83
2021/06/11 12:59:48;;;;;;;11.27;5.47;;;;;;;;;;5052319;28;20466;-84
2021/06/11 13:02:14;;;;;;;12.15;5.78;;;;;;;;;;5066882;28;20020;-84
2021/06/11 13:04:39;;;;;;;11.55;5.32;;;;;;;;;;5052998;28;20020;-83
2021/06/11 13:07:04;;;;;;;9.45;4.82;;;;;;;;;;5052340;28;20222;-84
2021/06/11 13:09:30;;;;;;;13.07;4.40;;;;;;;;;;5072046;28;20024;-83
2021/06/11 13:11:57;;;;;;;13.20;5.22;;;;;;;;;;5056845;28;20056;-83
2021/06/11 13:14:22;;;;;;;10.63;4.03;;;;;;;;;;5048380;28;20505;-84
2021/06/11 13:16:47;;;;;;;14.70;5.77;;;;;;;;;;5052680;28;20056;-83
2021/06/11 13:19:12;;;;;;;10.00;4.90;;;;;;;;;;5054262;28;20345;-83
2021/06/11 13:21:38;;;;;;;19.20;5.73;;;;;;;;;;5052807;28;20105;-84
2021/06/11 13:24:04;;;;;;;10.98;5.93;;;;;;;;;;5052083;28;20039;-84
2021/06/11 13:26:29;;;;;;;8.95;5.55;;;;;;;;;;5038429;28;20021;-85
2021/06/11 13:28:54;;;;;;;14.73;3.90;;;;;;;;;;5056604;28;20458;-85
2021/06/11 13:31:19;;;;;;;10.38;3.92;;;;;;;;;;5050823;28;20308;-85
2021/06/11 13:33:45;;;;;;;9.37;4.03;;;;;;;;;;5071141;28;20017;-84
2021/06/11 13:36:10;;;;;;;9.50;3.78;;;;;;;;;;5068914;28;20263;-84
2021/06/11 13:38:35;;;;;;;8.35;4.22;;;;;;;;;;5051746;28;20025;-84
2021/06/11 13:41:01;;;;;;;11.30;6.30;;;;;;;;;;5052576;28;20013;-85
2021/06/11 13:43:26;;;;;;;12.27;4.75;;;;;;;;;;5067539;28;20273;-86
2021/06/11 13:45:51;;;;;;;10.67;3.90;;;;;;;;;;5046900;28;20052;-85
2021/06/11 13:48:16;;;;;;;5.05;2.95;;;;;;;;;;5062982;28;20285;-84
2021/06/11 13:50:41;;;;;;;8.13;3.10;;;;;;;;;;5051192;28;20025;-84
2021/06/11 13:53:08;;;;;;;6.40;2.97;;;;;;;;;;5070334;28;20556;-83
2021/06/11 13:55:34;;;;;;;8.07;3.47;;;;;;;;;;5051270;28;20107;-84
2021/06/11 13:57:59;;;;;;;8.45;3.63;;;;;;;;;;5068156;28;20096;-85
2021/06/11 14:00:30;;;;;;;12.88;3.15;;;;;;;;;;5051680;28;20028;-87
2021/06/11 14:02:56;;;;;;;6.72;3.25;;;;;;;;;;5050932;28;20020;-85
2021/06/11 14:05:21;;;;;;;11.38;4.05;;;;;;;;;;5069221;28;20074;-84
2021/06/11 14:07:50;;;;;;;8.88;3.63;;;;;;;;;;5067941;28;20442;-84
2021/06/11 14:10:15;;;;;;;7.55;3.08;;;;;;;;;;5066268;28;20485;-84
2021/06/11 14:12:41;;;;;;;5.93;3.00;;;;;;;;;;5048036;28;20062;-84
2021/06/11 14:15:07;;;;;;;6.72;3.10;;;;;;;;;;5061427;28;20463;-84
2021/06/11 14:17:32;;;;;;;8.43;3.65;;;;;;;;;;5064864;28;20023;-85
2021/06/11 14:19:57;;;;;;;9.77;3.55;;;;;;;;;;5062304;28;20044;-85
2021/06/11 14:22:23;;;;;;;6.17;3.07;;;;;;;;;;5031059;28;20127;-85
2021/06/11 14:24:48;;;;;;;6.15;3.67;;;;;;;;;;5068871;28;20026;-84
2021/06/11 14:27:13;;;;;;;5.63;3.37;;;;;;;;;;5069506;28;20461;-85
2021/06/11 14:29:39;;;;;;;4.80;2.58;;;;;;;;;;5051465;28;20258;-84